createdAt,value
2023-01-03T00:01:33.771Z,6.00
2023-01-03T00:04:02.097Z,6.00
2023-01-03T00:06:44.173Z,5.80
2023-01-03T00:09:16.078Z,5.60
2023-01-03T00:12:04.094Z,5.40
2023-01-03T00:14:35.573Z,5.40
2023-01-03T00:17:04.448Z,5.20
2023-01-03T00:19:35.771Z,4.70
2023-01-03T00:22:03.348Z,4.70
2023-01-03T00:24:30.664Z,4.80
2023-01-03T00:26:58.009Z,4.60
2023-01-03T00:29:25.514Z,4.50
2023-01-03T00:31:52.892Z,4.50
2023-01-03T00:34:20.258Z,4.60
2023-01-03T00:36:47.675Z,4.80
2023-01-03T00:39:15.109Z,5.00
2023-01-03T00:41:42.830Z,5.00
2023-01-03T00:44:10.660Z,5.00
2023-01-03T00:46:38.007Z,5.10
2023-01-03T00:49:05.546Z,5.00
2023-01-03T00:51:35.227Z,5.10
2023-01-03T00:54:04.292Z,5.30
2023-01-03T00:56:36.090Z,5.20
2023-01-03T00:59:04.324Z,4.90
2023-01-03T01:01:40.622Z,4.90
2023-01-03T01:04:18.026Z,5.00
2023-01-03T01:06:50.524Z,4.90
2023-01-03T01:09:22.019Z,4.80
2023-01-03T01:11:50.371Z,4.70
2023-01-03T01:14:22.167Z,4.50
2023-01-03T01:16:58.740Z,4.50
2023-01-03T01:19:29.683Z,4.40
2023-01-03T01:21:57.702Z,4.60
2023-01-03T01:24:25.344Z,4.50
2023-01-03T01:26:53.027Z,4.50
2023-01-03T01:29:20.637Z,4.30
2023-01-03T01:31:48.133Z,4.10
2023-01-03T01:34:16.100Z,4.20
2023-01-03T01:36:45.416Z,4.30
2023-01-03T01:39:22.534Z,4.40
2023-01-03T01:42:19.705Z,4.40
2023-01-03T01:45:02.440Z,4.40
2023-01-03T01:47:32.718Z,4.20
2023-01-03T01:50:29.446Z,4.00
2023-01-03T01:52:59.660Z,4.00
2023-01-03T01:55:35.205Z,4.00
2023-01-03T01:58:03.152Z,4.00
2023-01-03T02:00:30.928Z,4.10
2023-01-03T02:02:58.403Z,4.20
2023-01-03T02:05:27.199Z,4.30
2023-01-03T02:07:55.467Z,4.40
2023-01-03T02:10:55.925Z,4.40
2023-01-03T02:13:35.692Z,4.50
2023-01-03T02:16:41.515Z,4.40
2023-01-03T02:19:11.805Z,4.50
2023-01-03T02:21:53.745Z,4.30
2023-01-03T02:24:26.609Z,4.30
2023-01-03T02:27:31.564Z,4.40
2023-01-03T02:30:28.394Z,4.40
2023-01-03T02:33:21.763Z,4.70
2023-01-03T02:36:33.379Z,5.10
2023-01-03T02:39:44.029Z,5.00
2023-01-03T02:42:36.556Z,4.90
2023-01-03T02:45:16.509Z,4.70
2023-01-03T02:47:54.834Z,4.80
2023-01-03T02:50:26.534Z,4.40
2023-01-03T02:52:56.894Z,4.30
2023-01-03T02:55:28.595Z,4.00
2023-01-03T02:58:04.861Z,3.90
2023-01-03T03:00:35.234Z,3.80
2023-01-03T03:03:09.787Z,3.80
2023-01-03T03:05:42.778Z,4.00
2023-01-03T03:08:10.080Z,4.20
2023-01-03T03:10:58.201Z,4.20
2023-01-03T03:13:30.499Z,4.40
2023-01-03T03:16:07.604Z,4.50
2023-01-03T03:19:00.053Z,4.40
2023-01-03T03:21:52.879Z,4.30
2023-01-03T03:24:45.365Z,4.20
2023-01-03T03:27:33.826Z,4.10
2023-01-03T03:30:03.717Z,4.00
2023-01-03T03:32:34.101Z,3.70
2023-01-03T03:35:04.852Z,3.60
2023-01-03T03:37:35.029Z,3.60
2023-01-03T03:40:21.356Z,3.60
2023-01-03T03:43:45.294Z,3.70
2023-01-03T03:46:21.939Z,3.80
2023-01-03T03:49:25.643Z,3.90
2023-01-03T03:51:56.465Z,3.80
2023-01-03T03:54:25.478Z,3.90
2023-01-03T03:56:59.708Z,4.00
2023-01-03T03:59:28.389Z,4.30
2023-01-03T04:01:58.698Z,4.50
2023-01-03T04:04:32.857Z,4.40
2023-01-03T04:07:02.410Z,4.30
2023-01-03T04:09:30.057Z,4.10
2023-01-03T04:11:57.332Z,4.00
2023-01-03T04:14:24.765Z,3.90
2023-01-03T04:16:52.124Z,3.80
2023-01-03T04:19:19.419Z,3.80
2023-01-03T04:21:46.752Z,3.60
2023-01-03T04:24:14.076Z,3.50
2023-01-03T04:26:41.352Z,3.40
2023-01-03T04:29:08.584Z,3.40
2023-01-03T04:31:35.939Z,3.30
2023-01-03T04:34:03.239Z,3.40
2023-01-03T04:36:30.546Z,3.50
2023-01-03T04:38:57.782Z,3.60
2023-01-03T04:41:25.024Z,3.60
2023-01-03T04:44:07.429Z,3.70
2023-01-03T04:46:40.063Z,3.70
2023-01-03T04:49:09.704Z,3.70
2023-01-03T04:51:37.789Z,3.70
2023-01-03T04:54:06.395Z,3.60
2023-01-03T04:56:35.854Z,3.70
2023-01-03T04:59:03.411Z,3.70
2023-01-03T05:01:31.002Z,3.70
2023-01-03T05:04:00.305Z,3.70
2023-01-03T05:06:28.743Z,3.70
2023-01-03T05:08:56.371Z,3.80
2023-01-03T05:11:23.805Z,3.80
2023-01-03T05:13:51.089Z,3.90
2023-01-03T05:16:18.562Z,4.00
2023-01-03T05:18:47.158Z,4.10
2023-01-03T05:21:36.336Z,4.10
2023-01-03T05:24:23.247Z,4.20
2023-01-03T05:26:51.307Z,4.30
2023-01-03T05:29:21.884Z,4.30
2023-01-03T05:31:49.608Z,4.40
2023-01-03T05:34:17.048Z,4.50
2023-01-03T05:36:44.286Z,4.50
2023-01-03T05:39:11.881Z,4.50
2023-01-03T05:41:57.643Z,4.50
2023-01-03T05:44:25.005Z,4.50
2023-01-03T05:46:52.558Z,4.50
2023-01-03T05:49:19.819Z,4.60
2023-01-03T05:51:47.074Z,4.50
2023-01-03T05:54:15.777Z,4.20
2023-01-03T05:56:43.194Z,4.30
2023-01-03T05:59:10.693Z,4.30
2023-01-03T06:01:38.115Z,4.30
2023-01-03T06:04:05.532Z,4.20
2023-01-03T06:06:32.869Z,3.90
2023-01-03T06:09:00.405Z,3.80
2023-01-03T06:11:27.643Z,3.80
2023-01-03T06:13:55.007Z,4.00
2023-01-03T06:16:40.989Z,4.10
2023-01-03T06:19:08.658Z,4.20
2023-01-03T06:21:37.291Z,4.30
2023-01-03T06:24:06.304Z,4.40
2023-01-03T06:26:33.862Z,4.40
2023-01-03T06:29:01.370Z,4.40
2023-01-03T06:31:28.730Z,5.40
2023-01-03T06:33:56.098Z,4.90
2023-01-03T06:36:26.104Z,4.70
2023-01-03T06:38:53.982Z,4.60
2023-01-03T06:41:21.793Z,4.50
2023-01-03T06:43:49.261Z,4.50
2023-01-03T06:46:35.184Z,4.50
2023-01-03T06:49:20.854Z,4.50
2023-01-03T06:52:08.331Z,4.50
2023-01-03T06:54:38.944Z,4.50
2023-01-03T06:57:06.226Z,4.60
2023-01-03T06:59:33.527Z,4.60
2023-01-03T07:02:01.075Z,4.70
2023-01-03T07:04:28.410Z,4.90
2023-01-03T07:06:55.726Z,4.90
2023-01-03T07:09:24.300Z,4.90
2023-01-03T07:11:51.689Z,5.00
2023-01-03T07:14:19.190Z,4.80
2023-01-03T07:16:47.849Z,4.90
2023-01-03T07:19:20.066Z,5.10
2023-01-03T07:21:47.592Z,5.20
2023-01-03T07:24:18.605Z,5.20
2023-01-03T07:26:46.036Z,5.20
2023-01-03T07:29:13.339Z,5.20
2023-01-03T07:31:41.605Z,5.40
2023-01-03T07:34:09.868Z,5.50
2023-01-03T07:36:37.429Z,5.50
2023-01-03T07:39:04.700Z,5.60
2023-01-03T07:41:50.621Z,5.60
2023-01-03T07:44:17.877Z,5.60
2023-01-03T07:46:45.277Z,5.70
2023-01-03T07:49:12.778Z,5.50
2023-01-03T07:51:40.219Z,5.40
2023-01-03T07:54:07.949Z,5.30
2023-01-03T07:56:35.665Z,5.20
2023-01-03T07:59:02.990Z,5.00
2023-01-03T08:01:31.111Z,4.90
2023-01-03T08:03:58.690Z,4.80
2023-01-03T08:06:26.128Z,4.80
2023-01-03T08:09:12.192Z,4.80
2023-01-03T08:11:58.100Z,4.90
2023-01-03T08:14:26.993Z,4.90
2023-01-03T08:16:55.720Z,5.00
2023-01-03T08:19:24.045Z,5.20
2023-01-03T08:21:51.318Z,5.30
2023-01-03T08:24:18.699Z,5.30
2023-01-03T08:26:45.990Z,5.40
2023-01-03T08:29:13.214Z,5.50
2023-01-03T08:31:47.226Z,5.60
2023-01-03T08:34:19.815Z,5.70
2023-01-03T08:36:55.111Z,5.80
2023-01-03T08:39:26.684Z,5.90
2023-01-03T08:42:00.946Z,6.00
2023-01-03T08:44:28.243Z,6.10
2023-01-03T08:47:00.307Z,6.20
2023-01-03T08:49:28.105Z,6.20
2023-01-03T08:51:55.362Z,6.30
2023-01-03T08:54:22.609Z,6.30
2023-01-03T08:56:49.862Z,6.30
2023-01-03T08:59:17.068Z,6.30
2023-01-03T09:01:44.544Z,6.20
2023-01-03T09:04:12.013Z,6.20
2023-01-03T09:06:39.256Z,6.20
2023-01-03T09:09:07.820Z,6.00
2023-01-03T09:11:35.272Z,6.00
2023-01-03T09:14:02.518Z,6.00
2023-01-03T09:16:29.922Z,5.90
2023-01-03T09:18:57.904Z,6.00
2023-01-03T09:21:25.342Z,6.00
2023-01-03T09:23:52.647Z,6.00
2023-01-03T09:26:19.896Z,6.10
2023-01-03T09:28:48.043Z,6.00
2023-01-03T09:31:15.388Z,6.00
2023-01-03T09:33:42.931Z,6.00
2023-01-03T09:36:10.176Z,6.00
2023-01-03T09:38:37.532Z,6.10
2023-01-03T09:41:21.555Z,6.10
2023-01-03T09:43:59.477Z,6.20
2023-01-03T09:46:29.489Z,6.30
2023-01-03T09:48:57.623Z,6.30
2023-01-03T09:51:54.341Z,6.40
2023-01-03T09:54:52.304Z,6.40
2023-01-03T09:57:47.871Z,6.40
2023-01-03T10:00:55.521Z,6.40
2023-01-03T10:03:50.414Z,6.40
2023-01-03T10:06:34.488Z,6.40
2023-01-03T10:09:06.237Z,6.40
2023-01-03T10:12:03.727Z,6.50
2023-01-03T10:14:52.744Z,6.50
2023-01-03T10:17:58.476Z,6.50
2023-01-03T10:20:42.520Z,6.60
2023-01-03T10:23:11.356Z,6.70
2023-01-03T10:25:41.624Z,6.70
2023-01-03T10:28:21.525Z,6.70
2023-01-03T10:31:02.238Z,6.70
2023-01-03T10:33:38.749Z,6.70
2023-01-03T10:36:08.614Z,6.70
2023-01-03T10:38:44.850Z,6.70
2023-01-03T10:41:23.230Z,6.80
2023-01-03T10:43:59.141Z,6.80
2023-01-03T10:46:28.267Z,6.80
2023-01-03T10:49:26.450Z,6.80
2023-01-03T10:51:47.906Z,6.90
2023-01-03T10:54:18.233Z,6.80
2023-01-03T10:56:47.275Z,6.80
2023-01-03T10:59:26.006Z,6.80
2023-01-03T11:02:03.245Z,6.80
2023-01-03T11:04:31.994Z,6.80
2023-01-03T11:07:00.798Z,6.70
2023-01-03T11:09:55.184Z,6.70
2023-01-03T11:12:37.202Z,6.70
2023-01-03T11:15:19.190Z,6.70
2023-01-03T11:17:54.824Z,6.70
2023-01-03T11:20:33.215Z,6.70
2023-01-03T11:23:08.780Z,6.70
2023-01-03T11:25:54.607Z,6.70
2023-01-03T11:28:46.627Z,6.70
2023-01-03T11:31:51.820Z,6.80
2023-01-03T11:34:22.068Z,6.80
2023-01-03T11:36:58.726Z,6.70
2023-01-03T11:39:37.327Z,6.70
2023-01-03T11:42:23.331Z,6.60
2023-01-03T11:45:04.683Z,6.50
2023-01-03T11:47:44.112Z,6.50
2023-01-03T11:50:29.561Z,6.50
2023-01-03T11:53:06.720Z,6.50
2023-01-03T11:56:18.904Z,6.50
2023-01-03T11:58:58.676Z,6.60
2023-01-03T12:01:30.680Z,6.60
2023-01-03T12:04:05.897Z,6.60
2023-01-03T12:06:36.086Z,6.80
2023-01-03T12:09:32.548Z,6.90
2023-01-03T12:11:59.912Z,7.00
2023-01-03T12:14:38.020Z,7.00
2023-01-03T12:17:22.198Z,7.10
2023-01-03T12:20:15.551Z,7.10
2023-01-03T12:22:57.949Z,7.10
2023-01-03T12:25:40.182Z,7.20
2023-01-03T12:28:10.498Z,7.20
2023-01-03T12:30:53.221Z,7.10
2023-01-03T12:33:42.690Z,7.10
2023-01-03T12:36:33.854Z,7.00
2023-01-03T12:39:33.666Z,6.90
2023-01-03T12:42:14.356Z,6.80
2023-01-03T12:44:45.430Z,6.80
2023-01-03T12:48:00.836Z,6.80
2023-01-03T12:50:44.507Z,6.80
2023-01-03T12:53:20.762Z,6.80
2023-01-03T12:55:57.040Z,6.70
2023-01-03T12:58:39.290Z,6.80
2023-01-03T13:01:35.948Z,6.90
2023-01-03T13:04:23.953Z,6.90
2023-01-03T13:07:12.116Z,6.90
2023-01-03T13:09:44.805Z,6.90
2023-01-03T13:12:26.004Z,6.90
2023-01-03T13:15:03.787Z,6.90
2023-01-03T13:17:41.735Z,6.90
2023-01-03T13:20:15.119Z,6.90
2023-01-03T13:22:55.356Z,6.90
2023-01-03T13:25:41.637Z,6.90
2023-01-03T13:28:21.091Z,6.90
2023-01-03T13:30:48.620Z,6.90
2023-01-03T13:33:19.536Z,6.90
2023-01-03T13:35:46.885Z,6.90
2023-01-03T13:38:32.327Z,6.90
2023-01-03T13:41:26.540Z,6.90
2023-01-03T13:43:55.380Z,6.90
2023-01-03T13:46:27.819Z,6.90
2023-01-03T13:49:00.394Z,6.90
2023-01-03T13:51:39.710Z,7.00
2023-01-03T13:54:12.772Z,7.00
2023-01-03T13:56:43.180Z,7.00
2023-01-03T13:59:19.361Z,7.10
2023-01-03T14:02:10.748Z,7.20
2023-01-03T14:04:56.522Z,7.10
2023-01-03T14:07:57.963Z,7.00
2023-01-03T14:11:02.385Z,7.00
2023-01-03T14:13:44.197Z,7.10
2023-01-03T14:16:23.706Z,7.10
2023-01-03T14:19:18.195Z,7.10
2023-01-03T14:21:52.167Z,7.20
2023-01-03T14:24:24.094Z,7.10
2023-01-03T14:26:51.978Z,7.10
2023-01-03T14:29:22.691Z,7.10
2023-01-03T14:31:55.793Z,7.10
2023-01-03T14:34:40.343Z,7.00
2023-01-03T14:37:19.833Z,6.90
2023-01-03T14:39:53.919Z,7.00
2023-01-03T14:42:21.239Z,6.90
2023-01-03T14:45:03.919Z,6.90
2023-01-03T14:47:41.315Z,6.80
2023-01-03T14:50:15.887Z,6.90
2023-01-03T14:52:46.015Z,6.80
2023-01-03T14:55:19.097Z,6.80
2023-01-03T14:57:49.242Z,6.90
2023-01-03T15:00:18.378Z,6.90
2023-01-03T15:02:47.278Z,6.90
2023-01-03T15:05:25.676Z,6.90
2023-01-03T15:07:53.822Z,7.00
2023-01-03T15:10:34.173Z,7.10
2023-01-03T15:13:04.959Z,7.00
2023-01-03T15:15:40.168Z,6.90
2023-01-03T15:18:09.719Z,6.90
2023-01-03T15:20:40.456Z,6.90
2023-01-03T15:23:21.283Z,6.90
2023-01-03T15:25:48.974Z,6.90
2023-01-03T15:28:29.239Z,6.80
2023-01-03T15:31:11.987Z,6.70
2023-01-03T15:33:41.380Z,6.70
2023-01-03T15:36:18.792Z,6.70
2023-01-03T15:38:47.638Z,6.70
2023-01-03T15:41:43.684Z,6.70
2023-01-03T15:44:13.455Z,6.70
2023-01-03T15:46:48.902Z,6.60
2023-01-03T15:49:21.555Z,6.60
2023-01-03T15:51:49.145Z,6.60
2023-01-03T15:54:19.435Z,6.50
2023-01-03T15:57:00.112Z,6.50
2023-01-03T15:59:30.122Z,6.50
2023-01-03T16:01:57.850Z,6.50
2023-01-03T16:04:26.498Z,6.50
2023-01-03T16:06:53.855Z,6.50
2023-01-03T16:09:21.587Z,6.50
2023-01-03T16:11:57.989Z,6.50
2023-01-03T16:14:35.332Z,6.40
2023-01-03T16:17:03.859Z,6.40
2023-01-03T16:19:31.771Z,6.30
2023-01-03T16:24:48.627Z,6.20
2023-01-03T16:27:19.157Z,6.20
2023-01-03T16:29:46.831Z,6.30
2023-01-03T16:32:23.952Z,6.30
2023-01-03T16:34:51.496Z,6.30
2023-01-03T16:37:18.788Z,6.30
2023-01-03T16:39:48.752Z,6.30
2023-01-03T16:42:16.246Z,6.40
2023-01-03T16:44:46.673Z,6.30
2023-01-03T16:47:19.662Z,6.40
2023-01-03T16:49:51.751Z,6.40
2023-01-03T16:52:25.058Z,6.40
2023-01-03T16:54:53.314Z,6.40
2023-01-03T16:57:22.570Z,6.40
2023-01-03T16:59:49.983Z,6.40
2023-01-03T17:02:17.389Z,6.40
2023-01-03T17:04:44.803Z,6.40
2023-01-03T17:07:24.043Z,6.30
2023-01-03T17:09:52.200Z,6.30
2023-01-03T17:12:22.739Z,6.20
2023-01-03T17:14:51.200Z,6.10
2023-01-03T17:17:21.176Z,6.10
2023-01-03T17:20:06.279Z,5.90
2023-01-03T17:22:33.964Z,5.90
2023-01-03T17:25:01.239Z,6.00
2023-01-03T17:27:32.612Z,6.00
2023-01-03T17:30:04.544Z,6.10
2023-01-03T17:32:31.894Z,6.00
2023-01-03T17:34:59.159Z,6.10
2023-01-03T17:37:26.657Z,6.10
2023-01-03T17:39:59.808Z,6.20
2023-01-03T17:42:29.250Z,6.20
2023-01-03T17:45:14.863Z,6.20
2023-01-03T17:48:02.328Z,6.20
2023-01-03T17:50:31.434Z,6.20
2023-01-03T17:53:01.175Z,6.20
2023-01-03T17:55:30.213Z,6.20
2023-01-03T17:58:01.851Z,6.20
2023-01-03T18:00:30.690Z,6.20
2023-01-03T18:03:00.389Z,6.10
2023-01-03T18:05:29.039Z,6.10
2023-01-03T18:08:01.852Z,5.90
2023-01-03T18:10:46.142Z,5.90
2023-01-03T18:13:20.593Z,5.80
2023-01-03T18:15:47.960Z,5.70
2023-01-03T18:18:18.070Z,5.80
2023-01-03T18:20:45.784Z,5.80
2023-01-03T18:23:37.848Z,5.90
2023-01-03T18:26:10.079Z,6.00
2023-01-03T18:28:37.440Z,6.00
2023-01-03T18:31:06.173Z,6.10
2023-01-03T18:33:33.563Z,6.10
2023-01-03T18:36:01.418Z,6.20
2023-01-03T18:38:31.897Z,6.20
2023-01-03T18:41:04.922Z,6.20
2023-01-03T18:43:33.357Z,6.30
2023-01-03T18:46:01.214Z,6.30
2023-01-03T18:48:28.610Z,6.30
2023-01-03T18:50:59.252Z,6.30
2023-01-03T18:53:29.390Z,6.20
2023-01-03T18:55:56.808Z,6.30
2023-01-03T18:58:39.788Z,6.20
2023-01-03T19:01:07.382Z,6.20
2023-01-03T19:03:35.643Z,6.20
2023-01-03T19:06:13.007Z,6.20
2023-01-03T19:08:40.350Z,6.20
2023-01-03T19:11:13.568Z,6.30
2023-01-03T19:13:52.120Z,6.30
2023-01-03T19:16:22.400Z,6.30
2023-01-03T19:18:50.391Z,6.20
2023-01-03T19:21:19.742Z,6.30
2023-01-03T19:24:07.271Z,6.30
2023-01-03T19:26:44.029Z,6.30
2023-01-03T19:29:20.299Z,6.30
2023-01-03T19:31:49.007Z,6.20
2023-01-03T19:34:18.423Z,6.10
2023-01-03T19:36:46.128Z,6.10
2023-01-03T19:39:14.169Z,6.10
2023-01-03T19:42:08.872Z,6.00
2023-01-03T19:44:36.600Z,5.80
2023-01-03T19:47:04.693Z,5.90
2023-01-03T19:49:32.041Z,5.90
2023-01-03T19:51:59.297Z,5.90
2023-01-03T19:54:26.716Z,5.90
2023-01-03T19:56:58.814Z,5.90
2023-01-03T19:59:36.227Z,5.90
2023-01-03T20:02:26.026Z,5.90
2023-01-03T20:04:53.676Z,6.00
2023-01-03T20:07:21.061Z,6.00
2023-01-03T20:09:48.314Z,6.00
2023-01-03T20:12:18.767Z,6.00
2023-01-03T20:14:49.817Z,6.00
2023-01-03T20:17:22.527Z,6.00
2023-01-03T20:19:50.421Z,6.00
2023-01-03T20:23:02.434Z,6.00
2023-01-03T20:25:37.159Z,5.90
2023-01-03T20:28:05.820Z,5.90
2023-01-03T20:30:34.359Z,5.90
2023-01-03T20:33:01.751Z,5.90
2023-01-03T20:38:24.683Z,5.90
2023-01-03T20:40:56.110Z,5.90
2023-01-03T20:43:24.061Z,5.90
2023-01-03T20:45:55.065Z,5.80
2023-01-03T20:48:26.047Z,5.70
2023-01-03T20:50:54.450Z,5.60
2023-01-03T20:53:24.673Z,5.60
2023-01-03T20:55:53.111Z,5.60
2023-01-03T20:58:25.329Z,5.50
2023-01-03T21:00:56.918Z,5.50
2023-01-03T21:03:31.371Z,5.50
2023-01-03T21:05:59.154Z,5.60
2023-01-03T21:08:45.005Z,5.70
2023-01-03T21:11:12.344Z,5.60
2023-01-03T21:13:39.866Z,5.60
2023-01-03T21:16:30.713Z,5.50
2023-01-03T21:19:08.569Z,5.50
2023-01-03T21:21:36.116Z,5.40
2023-01-03T21:24:05.475Z,5.40
2023-01-03T21:26:32.825Z,5.30
2023-01-03T21:29:00.218Z,5.40
2023-01-03T21:31:27.757Z,5.50
2023-01-03T21:33:55.168Z,5.50
2023-01-03T21:36:31.347Z,5.60
2023-01-03T21:38:59.747Z,5.60
2023-01-03T21:41:29.449Z,5.60
2023-01-03T21:43:58.248Z,5.60
2023-01-03T21:46:26.540Z,5.70
2023-01-03T21:48:54.648Z,5.70
2023-01-03T21:51:33.515Z,5.70
2023-01-03T21:54:08.878Z,5.70
2023-01-03T21:56:45.058Z,5.70
2023-01-03T21:59:17.277Z,5.70
2023-01-03T22:02:06.346Z,5.70
2023-01-03T22:04:34.729Z,5.70
2023-01-03T22:07:02.464Z,5.60
2023-01-03T22:09:50.102Z,5.40
2023-01-03T22:12:19.160Z,5.40
2023-01-03T22:14:46.680Z,5.40
2023-01-03T22:17:14.688Z,5.30
2023-01-03T22:19:42.151Z,5.30
2023-01-03T22:22:09.514Z,5.20
2023-01-03T22:24:36.792Z,5.10
2023-01-03T22:27:04.233Z,5.20
2023-01-03T22:29:31.496Z,5.30
2023-01-03T22:31:58.701Z,5.40
2023-01-03T22:34:26.140Z,5.50
2023-01-03T22:36:53.426Z,5.50
2023-01-03T22:39:20.706Z,5.60
2023-01-03T22:41:47.934Z,5.60
2023-01-03T22:44:15.188Z,5.70
2023-01-03T22:46:42.423Z,5.70
2023-01-03T22:49:09.673Z,5.80
2023-01-03T22:51:36.927Z,5.90
2023-01-03T22:54:04.999Z,5.90
2023-01-03T22:56:32.529Z,5.90
2023-01-03T22:59:01.197Z,5.90
2023-01-03T23:01:28.714Z,5.90
2023-01-03T23:04:03.376Z,5.80
2023-01-03T23:06:32.272Z,5.70
2023-01-03T23:09:00.368Z,5.60
2023-01-03T23:11:48.749Z,5.60
2023-01-03T23:14:18.482Z,5.50
2023-01-03T23:16:48.364Z,5.50
2023-01-03T23:19:17.995Z,5.60
2023-01-03T23:21:48.508Z,5.50
2023-01-03T23:24:22.464Z,5.60
2023-01-03T23:26:50.394Z,5.80
2023-01-03T23:29:18.303Z,5.90
2023-01-03T23:31:45.570Z,5.90
2023-01-03T23:34:13.203Z,5.90
2023-01-03T23:36:43.558Z,5.80
2023-01-03T23:39:16.320Z,5.80
2023-01-03T23:41:44.242Z,5.60
2023-01-03T23:44:12.161Z,5.30
2023-01-03T23:46:39.623Z,5.20
2023-01-03T23:49:06.884Z,5.30
2023-01-03T23:51:34.174Z,5.30
2023-01-03T23:54:01.500Z,5.30
2023-01-03T23:56:28.817Z,5.40
2023-01-03T23:58:56.028Z,5.30
